createdAt,value
2022-07-27T00:01:19.853Z,94199.00
2022-07-27T00:03:47.569Z,94195.00
2022-07-27T00:06:15.995Z,94199.00
2022-07-27T00:08:43.277Z,94188.00
2022-07-27T00:11:12.994Z,94189.00
2022-07-27T00:13:42.516Z,94189.00
2022-07-27T00:16:09.445Z,94196.00
2022-07-27T00:18:39.123Z,94201.00
2022-07-27T00:21:06.158Z,94196.00
2022-07-27T00:23:35.388Z,94196.00
2022-07-27T00:26:02.343Z,94183.00
2022-07-27T00:28:29.292Z,94179.00
2022-07-27T00:30:58.470Z,94184.00
2022-07-27T00:33:27.434Z,94178.00
2022-07-27T00:35:56.503Z,94178.00
2022-07-27T00:38:23.575Z,94172.00
2022-07-27T00:40:50.493Z,94179.00
2022-07-27T00:43:17.389Z,94183.00
2022-07-27T00:45:47.321Z,94178.00
2022-07-27T00:48:14.230Z,94173.00
2022-07-27T00:50:43.465Z,94160.00
2022-07-27T00:53:12.728Z,94167.00
2022-07-27T00:55:43.058Z,94173.00
2022-07-27T00:58:10.842Z,94164.00
2022-07-27T01:00:38.526Z,94157.00
2022-07-27T01:03:07.459Z,94157.00
2022-07-27T01:05:42.741Z,94156.00
2022-07-27T01:08:14.330Z,94164.00
2022-07-27T01:10:44.920Z,94166.00
2022-07-27T01:13:13.167Z,94160.00
2022-07-27T01:15:41.642Z,94161.00
2022-07-27T01:18:34.086Z,94163.00
2022-07-27T01:21:05.516Z,94152.00
2022-07-27T01:23:32.865Z,94159.00
2022-07-27T01:26:04.437Z,94155.00
2022-07-27T01:28:33.837Z,94155.00
2022-07-27T01:31:01.095Z,94137.00
2022-07-27T01:33:28.154Z,94136.00
2022-07-27T01:35:57.332Z,94138.00
2022-07-27T01:38:24.378Z,94133.00
2022-07-27T01:40:53.891Z,94131.00
2022-07-27T01:43:21.414Z,94141.00
2022-07-27T01:45:49.364Z,94140.00
2022-07-27T01:48:16.243Z,94135.00
2022-07-27T01:50:47.912Z,94136.00
2022-07-27T01:53:14.999Z,94139.00
2022-07-27T01:55:41.951Z,94127.00
2022-07-27T01:58:09.772Z,94121.00
2022-07-27T02:00:40.621Z,94130.00
2022-07-27T02:03:11.524Z,94118.00
2022-07-27T02:05:39.768Z,94120.00
2022-07-27T02:08:09.891Z,94117.00
2022-07-27T02:10:57.678Z,94114.00
2022-07-27T02:13:25.607Z,94110.00
2022-07-27T02:15:54.557Z,94124.00
2022-07-27T02:18:33.169Z,94107.00
2022-07-27T02:21:06.289Z,94117.00
2022-07-27T02:23:36.806Z,94117.00
2022-07-27T02:26:06.195Z,94112.00
2022-07-27T02:28:34.624Z,94119.00
2022-07-27T02:31:02.259Z,94117.00
2022-07-27T02:33:29.432Z,94111.00
2022-07-27T02:35:58.564Z,94115.00
2022-07-27T02:38:27.837Z,94115.00
2022-07-27T02:40:54.766Z,94110.00
2022-07-27T02:43:21.688Z,94107.00
2022-07-27T02:45:52.594Z,94109.00
2022-07-27T02:48:22.030Z,94107.00
2022-07-27T02:50:51.174Z,94120.00
2022-07-27T02:53:20.767Z,94114.00
2022-07-27T02:55:47.727Z,94108.00
2022-07-27T02:58:14.669Z,94105.00
2022-07-27T03:00:41.542Z,94100.00
2022-07-27T03:03:08.457Z,94102.00
2022-07-27T03:05:35.577Z,94096.00
2022-07-27T03:08:02.742Z,94097.00
2022-07-27T03:10:32.436Z,94094.00
2022-07-27T03:12:59.265Z,94097.00
2022-07-27T03:15:26.287Z,94096.00
2022-07-27T03:17:53.180Z,94079.00
2022-07-27T03:20:20.152Z,94092.00
2022-07-27T03:22:47.209Z,94087.00
2022-07-27T03:25:14.085Z,94084.00
2022-07-27T03:27:41.004Z,94076.00
2022-07-27T03:30:08.824Z,94083.00
2022-07-27T03:32:35.784Z,94080.00
2022-07-27T03:35:03.498Z,94082.00
2022-07-27T03:37:32.808Z,94086.00
2022-07-27T03:39:59.701Z,94091.00
2022-07-27T03:42:26.583Z,94093.00
2022-07-27T03:44:53.819Z,94094.00
2022-07-27T03:47:23.291Z,94079.00
2022-07-27T03:49:50.242Z,94093.00
2022-07-27T03:52:17.951Z,94097.00
2022-07-27T03:54:48.690Z,94087.00
2022-07-27T03:57:18.118Z,94088.00
2022-07-27T03:59:45.037Z,94090.00
2022-07-27T04:02:12.016Z,94097.00
2022-07-27T04:04:38.984Z,94102.00
2022-07-27T04:07:05.911Z,94091.00
2022-07-27T04:09:32.795Z,94093.00
2022-07-27T04:11:59.748Z,94100.00
2022-07-27T04:14:26.847Z,94099.00
2022-07-27T04:16:56.446Z,94102.00
2022-07-27T04:19:23.462Z,94100.00
2022-07-27T04:21:52.670Z,94110.00
2022-07-27T04:24:19.610Z,94106.00
2022-07-27T04:26:46.613Z,94098.00
2022-07-27T04:29:19.660Z,94103.00
2022-07-27T04:31:47.471Z,94101.00
2022-07-27T04:34:16.458Z,94102.00
2022-07-27T04:36:43.411Z,94101.00
2022-07-27T04:39:10.626Z,94090.00
2022-07-27T04:41:37.985Z,94106.00
2022-07-27T04:44:05.348Z,94100.00
2022-07-27T04:46:32.466Z,94106.00
2022-07-27T04:49:01.511Z,94097.00
2022-07-27T04:51:34.081Z,94102.00
2022-07-27T04:54:02.394Z,94092.00
2022-07-27T04:56:31.743Z,94105.00
2022-07-27T04:58:58.655Z,94102.00
2022-07-27T05:01:26.742Z,94112.00
2022-07-27T05:03:56.264Z,94116.00
2022-07-27T05:06:23.502Z,94117.00
2022-07-27T05:08:50.426Z,94122.00
2022-07-27T05:11:17.646Z,94122.00
2022-07-27T05:13:47.561Z,94124.00
2022-07-27T05:16:14.480Z,94120.00
2022-07-27T05:18:45.594Z,94119.00
2022-07-27T05:21:12.452Z,94124.00
2022-07-27T05:23:39.354Z,94124.00
2022-07-27T05:26:06.269Z,94132.00
2022-07-27T05:28:37.713Z,94144.00
2022-07-27T05:31:06.820Z,94142.00
2022-07-27T05:33:34.377Z,94144.00
2022-07-27T05:36:01.316Z,94143.00
2022-07-27T05:38:28.897Z,94142.00
2022-07-27T05:40:55.867Z,94148.00
2022-07-27T05:43:22.731Z,94143.00
2022-07-27T05:45:50.354Z,94144.00
2022-07-27T05:48:17.280Z,94140.00
2022-07-27T05:50:46.497Z,94133.00
2022-07-27T05:53:16.534Z,94139.00
2022-07-27T05:55:59.234Z,94125.00
2022-07-27T05:58:29.478Z,94143.00
2022-07-27T06:00:56.801Z,94148.00
2022-07-27T06:03:24.112Z,94142.00
2022-07-27T06:06:13.732Z,94142.00
2022-07-27T06:08:40.707Z,94148.00
2022-07-27T06:11:09.857Z,94137.00
2022-07-27T06:13:42.311Z,94141.00
2022-07-27T06:16:13.010Z,94144.00
2022-07-27T06:18:42.444Z,94141.00
2022-07-27T06:21:09.489Z,94139.00
2022-07-27T06:23:36.449Z,94143.00
2022-07-27T06:26:03.432Z,94133.00
2022-07-27T06:28:30.783Z,94141.00
2022-07-27T06:31:02.817Z,94140.00
2022-07-27T06:33:30.849Z,94140.00
2022-07-27T06:35:59.656Z,94135.00
2022-07-27T06:38:29.246Z,94131.00
2022-07-27T06:40:59.359Z,94134.00
2022-07-27T06:43:32.580Z,94138.00
2022-07-27T06:46:03.243Z,94135.00
2022-07-27T06:48:30.229Z,94127.00
2022-07-27T06:51:00.215Z,94132.00
2022-07-27T06:53:27.130Z,94134.00
2022-07-27T06:55:58.242Z,94132.00
2022-07-27T06:58:27.654Z,94131.00
2022-07-27T07:00:57.759Z,94124.00
2022-07-27T07:03:24.853Z,94134.00
2022-07-27T07:05:51.821Z,94132.00
2022-07-27T07:08:18.726Z,94119.00
2022-07-27T07:10:46.083Z,94122.00
2022-07-27T07:13:15.833Z,94122.00
2022-07-27T07:15:45.786Z,94127.00
2022-07-27T07:18:13.569Z,94125.00
2022-07-27T07:20:44.179Z,94127.00
2022-07-27T07:23:12.111Z,94115.00
2022-07-27T07:25:41.990Z,94112.00
2022-07-27T07:28:09.270Z,94119.00
2022-07-27T07:30:36.877Z,94110.00
2022-07-27T07:33:04.434Z,94111.00
2022-07-27T07:35:31.983Z,94118.00
2022-07-27T07:37:58.953Z,94115.00
2022-07-27T07:40:46.275Z,94112.00
2022-07-27T07:43:14.018Z,94114.00
2022-07-27T07:45:51.149Z,94109.00
2022-07-27T07:48:20.872Z,94110.00
2022-07-27T07:50:53.950Z,94115.00
2022-07-27T07:53:27.121Z,94109.00
2022-07-27T07:55:58.074Z,94113.00
2022-07-27T07:58:25.080Z,94114.00
2022-07-27T08:00:52.061Z,94121.00
2022-07-27T08:03:19.719Z,94122.00
2022-07-27T08:05:47.308Z,94120.00
2022-07-27T08:08:17.127Z,94121.00
2022-07-27T08:10:44.477Z,94126.00
2022-07-27T08:13:19.530Z,94125.00
2022-07-27T08:15:48.882Z,94129.00
2022-07-27T08:18:19.026Z,94128.00
2022-07-27T08:20:46.053Z,94130.00
2022-07-27T08:23:13.186Z,94124.00
2022-07-27T08:25:40.198Z,94129.00
2022-07-27T08:28:07.562Z,94129.00
2022-07-27T08:30:34.793Z,94130.00
2022-07-27T08:33:04.760Z,94114.00
2022-07-27T08:35:35.215Z,94123.00
2022-07-27T08:38:05.761Z,94126.00
2022-07-27T08:40:45.992Z,94131.00
2022-07-27T08:43:24.761Z,94120.00
2022-07-27T08:45:58.147Z,94123.00
2022-07-27T08:48:27.932Z,94119.00
2022-07-27T08:50:56.038Z,94122.00
2022-07-27T08:53:24.231Z,94130.00
2022-07-27T08:55:51.592Z,94122.00
2022-07-27T08:58:18.591Z,94120.00
2022-07-27T09:00:48.463Z,94123.00
2022-07-27T09:03:21.201Z,94120.00
2022-07-27T09:05:53.598Z,94119.00
2022-07-27T09:08:30.312Z,94114.00
2022-07-27T09:10:59.513Z,94113.00
2022-07-27T09:13:33.412Z,94109.00
2022-07-27T09:16:23.522Z,94112.00
2022-07-27T09:19:11.658Z,94120.00
2022-07-27T09:21:38.724Z,94111.00
2022-07-27T09:24:44.469Z,94122.00
2022-07-27T09:27:05.634Z,94113.00
2022-07-27T09:29:36.875Z,94119.00
2022-07-27T09:32:18.181Z,94118.00
2022-07-27T09:34:47.723Z,94117.00
2022-07-27T09:37:25.330Z,94126.00
2022-07-27T09:40:12.335Z,94117.00
2022-07-27T09:43:08.711Z,94131.00
2022-07-27T09:45:34.204Z,94126.00
2022-07-27T09:48:21.666Z,94129.00
2022-07-27T09:51:32.740Z,94127.00
2022-07-27T09:53:54.784Z,94135.00
2022-07-27T09:56:31.180Z,94128.00
2022-07-27T09:59:03.521Z,94129.00
2022-07-27T10:01:35.165Z,94134.00
2022-07-27T10:04:06.327Z,94136.00
2022-07-27T10:07:00.321Z,94139.00
2022-07-27T10:09:23.163Z,94133.00
2022-07-27T10:11:50.668Z,94134.00
2022-07-27T10:14:17.777Z,94133.00
2022-07-27T10:16:49.185Z,94137.00
2022-07-27T10:19:20.714Z,94137.00
2022-07-27T10:21:50.178Z,94134.00
2022-07-27T10:24:29.116Z,94130.00
2022-07-27T10:26:58.782Z,94119.00
2022-07-27T10:29:28.175Z,94130.00
2022-07-27T10:31:55.004Z,94126.00
2022-07-27T10:34:44.094Z,94126.00
2022-07-27T10:37:26.787Z,94125.00
2022-07-27T10:40:24.870Z,94123.00
2022-07-27T10:43:19.884Z,94129.00
2022-07-27T10:46:01.701Z,94134.00
2022-07-27T10:48:48.405Z,94127.00
2022-07-27T10:51:21.195Z,94124.00
2022-07-27T10:54:12.005Z,94119.00
2022-07-27T10:56:48.143Z,94125.00
2022-07-27T10:59:17.969Z,94126.00
2022-07-27T11:01:57.571Z,94126.00
2022-07-27T11:04:25.289Z,94115.00
2022-07-27T11:10:06.560Z,94117.00
2022-07-27T11:12:40.687Z,94119.00
2022-07-27T11:15:08.148Z,94119.00
2022-07-27T11:20:24.152Z,94108.00
2022-07-27T11:23:34.326Z,94104.00
2022-07-27T11:25:38.297Z,94109.00
2022-07-27T11:28:09.821Z,94096.00
2022-07-27T11:30:38.970Z,94084.00
2022-07-27T11:33:05.965Z,94088.00
2022-07-27T11:35:33.018Z,94088.00
2022-07-27T11:38:03.439Z,94096.00
2022-07-27T11:41:02.299Z,94085.00
2022-07-27T11:43:38.433Z,94089.00
2022-07-27T11:46:23.011Z,94091.00
2022-07-27T11:49:09.459Z,94085.00
2022-07-27T11:51:43.227Z,94085.00
2022-07-27T11:54:29.178Z,94088.00
2022-07-27T11:56:59.614Z,94088.00
2022-07-27T11:59:39.877Z,94086.00
2022-07-27T12:02:19.873Z,94084.00
2022-07-27T12:04:52.185Z,94082.00
2022-07-27T12:07:32.417Z,94082.00
2022-07-27T12:10:07.044Z,94085.00
2022-07-27T12:12:41.675Z,94079.00
2022-07-27T12:15:44.388Z,94088.00
2022-07-27T12:18:06.713Z,94091.00
2022-07-27T12:20:36.484Z,94085.00
2022-07-27T12:23:07.775Z,94095.00
2022-07-27T12:25:35.527Z,94091.00
2022-07-27T12:28:08.324Z,94090.00
2022-07-27T12:30:41.037Z,94083.00
2022-07-27T12:33:37.226Z,94079.00
2022-07-27T12:36:07.935Z,94077.00
2022-07-27T12:38:46.183Z,94078.00
2022-07-27T12:41:37.752Z,94082.00
2022-07-27T12:44:16.899Z,94077.00
2022-07-27T12:47:02.480Z,94073.00
2022-07-27T12:49:43.192Z,94071.00
2022-07-27T12:52:15.589Z,94064.00
2022-07-27T12:54:44.944Z,94078.00
2022-07-27T12:57:24.337Z,94074.00
2022-07-27T13:00:00.769Z,94070.00
2022-07-27T13:02:29.730Z,94072.00
2022-07-27T13:04:56.982Z,94068.00
2022-07-27T13:07:23.967Z,94060.00
2022-07-27T13:10:03.066Z,94064.00
2022-07-27T13:12:31.089Z,94065.00
2022-07-27T13:14:58.149Z,94061.00
2022-07-27T13:17:25.113Z,94064.00
2022-07-27T13:19:55.058Z,94067.00
2022-07-27T13:22:21.991Z,94070.00
2022-07-27T13:24:48.980Z,94058.00
2022-07-27T13:27:18.412Z,94055.00
2022-07-27T13:29:47.912Z,94061.00
2022-07-27T13:32:14.919Z,94059.00
2022-07-27T13:34:45.420Z,94067.00
2022-07-27T13:37:12.327Z,94066.00
2022-07-27T13:39:39.354Z,94053.00
2022-07-27T13:42:11.222Z,94065.00
2022-07-27T13:45:03.736Z,94063.00
2022-07-27T13:47:33.265Z,94069.00
2022-07-27T13:50:00.334Z,94060.00
2022-07-27T13:52:27.333Z,94067.00
2022-07-27T13:54:54.333Z,94060.00
2022-07-27T13:57:24.071Z,94064.00
2022-07-27T13:59:53.759Z,94060.00
2022-07-27T14:02:23.320Z,94058.00
2022-07-27T14:04:55.445Z,94050.00
2022-07-27T14:07:28.292Z,94061.00
2022-07-27T14:10:17.185Z,94055.00
2022-07-27T14:12:46.390Z,94053.00
2022-07-27T14:15:13.348Z,94047.00
2022-07-27T14:17:40.347Z,94050.00
2022-07-27T14:20:13.739Z,94049.00
2022-07-27T14:22:42.841Z,94053.00
2022-07-27T14:25:10.114Z,94043.00
2022-07-27T14:27:39.253Z,94048.00
2022-07-27T14:30:08.118Z,94048.00
2022-07-27T14:32:36.018Z,94044.00
2022-07-27T14:35:03.914Z,94052.00
2022-07-27T14:37:36.402Z,94052.00
2022-07-27T14:40:05.731Z,94054.00
2022-07-27T14:42:35.124Z,94053.00
2022-07-27T14:45:07.726Z,94057.00
2022-07-27T14:47:34.726Z,94053.00
2022-07-27T14:50:01.785Z,94055.00
2022-07-27T14:52:33.652Z,94052.00
2022-07-27T14:55:01.848Z,94056.00
2022-07-27T14:57:31.658Z,94058.00
2022-07-27T14:59:58.593Z,94057.00
2022-07-27T15:02:25.588Z,94058.00
2022-07-27T15:04:54.785Z,94058.00
2022-07-27T15:07:24.085Z,94058.00
2022-07-27T15:09:53.962Z,94053.00
2022-07-27T15:12:20.898Z,94054.00
2022-07-27T15:14:48.140Z,94053.00
2022-07-27T15:17:15.100Z,94052.00
2022-07-27T15:19:41.991Z,94052.00
2022-07-27T15:22:08.939Z,94058.00
2022-07-27T15:24:38.380Z,94053.00
2022-07-27T15:27:05.509Z,94047.00
2022-07-27T15:29:32.468Z,94049.00
2022-07-27T15:32:01.604Z,94044.00
2022-07-27T15:34:28.790Z,94048.00
2022-07-27T15:36:58.252Z,94049.00
2022-07-27T15:39:25.266Z,94051.00
2022-07-27T15:41:52.208Z,94051.00
2022-07-27T15:44:26.260Z,94051.00
2022-07-27T15:46:55.436Z,94052.00
2022-07-27T15:49:25.094Z,94056.00
2022-07-27T15:51:52.596Z,94052.00
2022-07-27T15:54:20.806Z,94048.00
2022-07-27T15:56:48.201Z,94051.00
2022-07-27T15:59:16.591Z,94041.00
2022-07-27T16:01:47.147Z,94040.00
2022-07-27T16:04:16.445Z,94045.00
2022-07-27T16:06:45.850Z,94036.00
2022-07-27T16:09:13.834Z,94039.00
2022-07-27T16:11:40.975Z,94041.00
2022-07-27T16:14:10.159Z,94045.00
2022-07-27T16:16:40.165Z,94040.00
2022-07-27T16:19:12.579Z,94033.00
2022-07-27T16:21:55.053Z,94039.00
2022-07-27T16:24:28.931Z,94032.00
2022-07-27T16:26:59.587Z,94035.00
2022-07-27T16:29:32.140Z,94028.00
2022-07-27T16:32:01.485Z,94028.00
2022-07-27T16:34:31.363Z,94029.00
2022-07-27T16:37:01.469Z,94022.00
2022-07-27T16:39:28.581Z,94024.00
2022-07-27T16:41:55.786Z,94029.00
2022-07-27T16:44:22.912Z,94036.00
2022-07-27T16:46:49.918Z,94028.00
2022-07-27T16:49:18.391Z,94033.00
2022-07-27T16:51:46.679Z,94036.00
2022-07-27T16:54:16.810Z,94031.00
2022-07-27T16:56:46.838Z,94033.00
2022-07-27T16:59:14.101Z,94035.00
2022-07-27T17:01:43.603Z,94040.00
2022-07-27T17:04:10.708Z,94021.00
2022-07-27T17:06:37.741Z,94027.00
2022-07-27T17:09:07.106Z,94031.00
2022-07-27T17:11:37.300Z,94030.00
2022-07-27T17:14:08.079Z,94028.00
2022-07-27T17:16:37.322Z,94030.00
2022-07-27T17:19:04.306Z,94025.00
2022-07-27T17:21:31.200Z,94025.00
2022-07-27T17:24:01.116Z,94033.00
2022-07-27T17:26:28.072Z,94032.00
2022-07-27T17:28:55.079Z,94040.00
2022-07-27T17:31:22.478Z,94034.00
2022-07-27T17:33:52.491Z,94033.00
2022-07-27T17:36:20.467Z,94039.00
2022-07-27T17:38:49.357Z,94038.00
2022-07-27T17:41:24.627Z,94044.00
2022-07-27T17:43:54.101Z,94040.00
2022-07-27T17:46:22.926Z,94039.00
2022-07-27T17:48:52.990Z,94041.00
2022-07-27T17:51:25.296Z,94045.00
2022-07-27T17:53:52.439Z,94035.00
2022-07-27T17:56:19.381Z,94044.00
2022-07-27T17:58:46.749Z,94048.00
2022-07-27T18:01:16.840Z,94049.00
2022-07-27T18:03:43.961Z,94050.00
2022-07-27T18:06:13.418Z,94050.00
2022-07-27T18:08:40.340Z,94042.00
2022-07-27T18:11:09.855Z,94046.00
2022-07-27T18:13:39.642Z,94045.00
2022-07-27T18:16:13.353Z,94045.00
2022-07-27T18:18:43.578Z,94044.00
2022-07-27T18:21:14.972Z,94052.00
2022-07-27T18:23:42.791Z,94046.00
2022-07-27T18:26:12.218Z,94049.00
2022-07-27T18:28:42.286Z,94054.00
2022-07-27T18:31:10.759Z,94050.00
2022-07-27T18:33:39.328Z,94053.00
2022-07-27T18:36:06.819Z,94053.00
2022-07-27T18:38:33.923Z,94055.00
2022-07-27T18:41:00.861Z,94056.00
2022-07-27T18:43:29.830Z,94058.00
2022-07-27T18:45:59.177Z,94058.00
2022-07-27T18:48:26.183Z,94071.00
2022-07-27T18:50:53.596Z,94068.00
2022-07-27T18:53:20.588Z,94068.00
2022-07-27T18:55:52.743Z,94074.00
2022-07-27T18:58:22.660Z,94079.00
2022-07-27T19:00:52.227Z,94086.00
2022-07-27T19:03:24.803Z,94082.00
2022-07-27T19:05:55.209Z,94082.00
2022-07-27T19:08:22.665Z,94086.00
2022-07-27T19:10:51.667Z,94092.00
2022-07-27T19:13:18.550Z,94089.00
2022-07-27T19:15:45.681Z,94091.00
2022-07-27T19:18:12.817Z,94088.00
2022-07-27T19:20:39.866Z,94091.00
2022-07-27T19:23:10.519Z,94088.00
2022-07-27T19:25:37.496Z,94098.00
2022-07-27T19:28:04.755Z,94092.00
2022-07-27T19:30:34.264Z,94097.00
2022-07-27T19:33:01.623Z,94094.00
2022-07-27T19:35:28.709Z,94098.00
2022-07-27T19:37:57.836Z,94109.00
2022-07-27T19:43:11.865Z,94113.00
2022-07-27T19:45:41.492Z,94110.00
2022-07-27T19:48:08.654Z,94114.00
2022-07-27T19:50:35.626Z,94110.00
2022-07-27T19:53:03.234Z,94112.00
2022-07-27T19:55:30.280Z,94107.00
2022-07-27T19:58:02.250Z,94117.00
2022-07-27T20:00:29.295Z,94115.00
2022-07-27T20:02:58.879Z,94121.00
2022-07-27T20:05:28.657Z,94117.00
2022-07-27T20:07:58.133Z,94112.00
2022-07-27T20:10:25.946Z,94118.00
2022-07-27T20:12:53.216Z,94127.00
2022-07-27T20:15:20.213Z,94116.00
2022-07-27T20:17:49.618Z,94115.00
2022-07-27T20:20:18.981Z,94116.00
2022-07-27T20:22:46.119Z,94122.00
2022-07-27T20:25:14.849Z,94122.00
2022-07-27T20:27:42.565Z,94121.00
2022-07-27T20:30:11.061Z,94116.00
2022-07-27T20:32:40.210Z,94116.00
2022-07-27T20:35:09.922Z,94123.00
2022-07-27T20:37:41.110Z,94123.00
2022-07-27T20:40:11.139Z,94124.00
2022-07-27T20:42:42.639Z,94120.00
2022-07-27T20:45:13.746Z,94121.00
2022-07-27T20:47:44.204Z,94115.00
2022-07-27T20:50:16.546Z,94116.00
2022-07-27T20:52:44.002Z,94111.00
2022-07-27T20:55:13.798Z,94113.00
2022-07-27T20:57:43.221Z,94111.00
2022-07-27T21:00:13.777Z,94110.00
2022-07-27T21:02:43.066Z,94120.00
2022-07-27T21:05:12.554Z,94112.00
2022-07-27T21:07:42.680Z,94113.00
2022-07-27T21:10:10.216Z,94112.00
2022-07-27T21:12:37.133Z,94113.00
2022-07-27T21:15:13.440Z,94117.00
2022-07-27T21:17:45.810Z,94113.00
2022-07-27T21:20:15.518Z,94110.00
2022-07-27T21:22:45.236Z,94110.00
2022-07-27T21:25:16.312Z,94113.00
2022-07-27T21:27:50.267Z,94121.00
2022-07-27T21:30:19.659Z,94121.00
2022-07-27T21:32:46.581Z,94119.00
2022-07-27T21:35:13.469Z,94114.00
2022-07-27T21:37:43.737Z,94113.00
2022-07-27T21:40:11.440Z,94118.00
2022-07-27T21:42:41.098Z,94109.00
2022-07-27T21:45:08.683Z,94098.00
2022-07-27T21:47:35.677Z,94116.00
2022-07-27T21:50:05.759Z,94112.00
2022-07-27T21:52:32.643Z,94115.00
2022-07-27T21:54:59.901Z,94112.00
2022-07-27T21:57:26.822Z,94109.00
2022-07-27T21:59:53.768Z,94108.00
2022-07-27T22:02:23.009Z,94105.00
2022-07-27T22:04:55.361Z,94104.00
2022-07-27T22:07:22.272Z,94111.00
2022-07-27T22:09:49.243Z,94106.00
2022-07-27T22:12:16.221Z,94109.00
2022-07-27T22:14:46.263Z,94115.00
2022-07-27T22:17:13.142Z,94111.00
2022-07-27T22:19:40.043Z,94116.00
2022-07-27T22:22:07.041Z,94116.00
2022-07-27T22:24:33.923Z,94115.00
2022-07-27T22:27:00.837Z,94122.00
2022-07-27T22:29:27.815Z,94122.00
2022-07-27T22:31:57.882Z,94123.00
2022-07-27T22:34:24.844Z,94118.00
2022-07-27T22:36:51.977Z,94128.00
2022-07-27T22:39:20.921Z,94119.00
2022-07-27T22:41:47.848Z,94127.00
2022-07-27T22:44:19.624Z,94124.00
2022-07-27T22:46:50.387Z,94129.00
2022-07-27T22:49:19.683Z,94124.00
2022-07-27T22:51:49.990Z,94120.00
2022-07-27T22:54:20.516Z,94124.00
2022-07-27T22:56:48.713Z,94126.00
2022-07-27T22:59:15.664Z,94138.00
2022-07-27T23:01:46.296Z,94139.00
2022-07-27T23:04:16.663Z,94138.00
2022-07-27T23:06:44.389Z,94131.00
2022-07-27T23:09:13.614Z,94129.00
2022-07-27T23:11:40.561Z,94124.00
2022-07-27T23:14:07.566Z,94131.00
2022-07-27T23:16:34.964Z,94123.00
2022-07-27T23:19:01.919Z,94119.00
2022-07-27T23:21:31.909Z,94115.00
2022-07-27T23:23:58.822Z,94119.00
2022-07-27T23:26:27.778Z,94120.00
2022-07-27T23:28:54.698Z,94106.00
2022-07-27T23:31:22.583Z,94114.00
2022-07-27T23:33:49.654Z,94113.00
2022-07-27T23:36:16.612Z,94111.00
2022-07-27T23:38:48.266Z,94109.00
2022-07-27T23:41:17.644Z,94107.00
2022-07-27T23:43:47.134Z,94107.00
2022-07-27T23:46:14.146Z,94100.00
2022-07-27T23:48:45.566Z,94092.00
2022-07-27T23:51:21.617Z,94091.00
2022-07-27T23:53:48.648Z,94087.00
2022-07-27T23:56:16.162Z,94085.00
2022-07-27T23:58:43.531Z,94094.00
